Pagrindinis puslapis
METAR-TAF:

METAR-TAF

Oro uostai :

Quatro de Fevereiro oro uostas

Luanda, Angola

platuma: 08-51S, ilguma: 013-14E, Aukštis: 74 m

Dabartinis oras

Ataskaita buvo paskelbta 50 minutes, ne 04:00 UTC
Vėjas 6 kt iš Pietų
Temperatūra 23°C
Drėgmė 89%
Slėgis 1013 hPa
Matomumas: 8000 m
Su prošvaistėmis ne aukštis 2000 ft

METAR: FNLU 180400Z 17006KT 8000 BKN020 23/21 Q1013 NOSIG

Laikas: 05:50 (04:50 UTC)

Prognozė

Ataskaita buvo paskelbta 6 valandos ir 0 minutes, ne 22:50 UTC
Prognozė galioja nuo 18 metu 00 UTC su 19 metu 06 UTC
Vėjas 5 kt iš Pietų
Matomumas: 8000 m
Su prošvaistėmis ne aukštis 2000 ft
Tikimybė 30% :
Laikinai
nuo 18 metu 03 UTC su 18 metu 08 UTC
Vėjas 3 kt nuo kintamojo kryptimis
Matomumas: 3000 m
Su prošvaistėmis ne aukštis 1800 ft
dulksna, rūkana
Tapsmas
nuo 18 metu 11 UTC su 18 metu 13 UTC
Vėjas 10 kt iš Vakarų
Matomumas 10 km arba daugiau
Mažai debesys ne aukštis 2000 ft

TAF: FNLU 172250Z 1800/1906 18005KT 8000 BKN020 PROB30 TEMPO 1803/1808 VRB03KT 3000 -DZ BR BKN018 BECMG 1811/1813 28010KT 9999 FEW020

Orai ataskaitas ir orų prognozės (METAR, TAF).

turimą stotys yra geltonos ir raudonos taškus žemėlapyje.

Perkelti pele per norėdami pamatyti stoties vardą.

Tada spustelėkite, norėdami matyti oro stebėjimo ir prognozės.

Norėdami pakeisti žemėlapį: spustelėkite ant žalios mygtukų su juodo kryžiaus žemyn,; žalią mygtuką su brūkšneliu, jei norite nutolinti; arba žalių rodyklių gretimoms žemėlapius.


METAR-TAF: